Time;durP1;ratioP1;P1;durP2;ratioP2;P2;SDS_P1;SDS_P2;PMS_P1;PMS_P2;Temp;Humidity;BMP_temperature;BMP_pressure;BME280_temperature;BME280_humidity;BME280_pressure;Samples;Min_cycle;Max_cycle;Signal;HPM_P1;HPM_P2
2023/01/08 00:52:34;;;;;;;58.20;29.33;;;4.50;99.90;;;;;;6088996;23;20226;-83
2023/01/08 01:23:03;;;;;;;51.00;28.43;;;4.30;99.90;;;;;;6050249;23;20182;-81
2023/01/08 01:48:27;;;;;;;46.47;27.60;;;4.40;99.90;;;;;;5875698;24;20543;-84
2023/01/08 02:13:20;;;;;;;46.00;27.00;;;4.40;99.90;;;;;;5628608;24;20841;-81
2023/01/08 02:34:03;;;;;;;36.53;21.47;;;4.50;99.90;;;;;;5619242;25;20178;-82
2023/01/08 02:59:15;;;;;;;29.93;17.80;;;3.80;99.90;;;;;;5595430;25;20558;-84
2023/01/08 03:29:55;;;;;;;24.50;16.03;;;3.40;99.90;;;;;;5692730;24;20214;-84
2023/01/08 04:05:16;;;;;;;24.33;14.93;;;3.50;99.90;;;;;;5742802;24;20659;-83
2023/01/08 04:35:14;;;;;;;19.13;12.00;;;3.40;99.90;;;;;;5675290;24;20504;-82
2023/01/08 04:56:03;;;;;;;24.03;14.33;;;3.50;99.90;;;;;;5594771;24;20383;-84
2023/01/08 05:21:31;;;;;;;20.10;11.07;;;3.50;99.90;;;;;;5704935;24;21111;-84
2023/01/08 05:57:05;;;;;;;19.87;11.10;;;3.50;99.90;;;;;;5835528;24;20255;-84
2023/01/08 06:01:25;;;;;;;20.90;12.53;;;3.50;99.90;;;;;;5725691;24;20228;-84
2023/01/08 06:27:30;;;;;;;17.53;11.23;;;3.50;99.90;;;;;;5795131;24;20967;-82
2023/01/08 07:08:00;;;;;;;20.70;12.33;;;3.30;99.90;;;;;;5888829;24;21016;-86
2023/01/08 07:38:15;;;;;;;21.40;12.27;;;3.20;99.90;;;;;;5881096;23;20244;-83
2023/01/08 08:13:17;;;;;;;19.00;12.17;;;3.50;99.90;;;;;;5844547;24;20565;-82
2023/01/08 08:39:02;;;;;;;20.07;13.07;;;3.70;99.90;;;;;;5769681;24;20205;-81
2023/01/08 09:24:43;;;;;;;20.83;13.03;;;4.00;99.90;;;;;;5851702;24;20454;-85
2023/01/08 09:59:50;;;;;;;21.80;12.70;;;4.50;99.90;;;;;;5906263;24;20203;-84
2023/01/08 11:05:42;;;;;;;26.70;17.47;;;4.30;99.00;;;;;;5803236;24;20230;-83
2023/01/08 11:26:24;;;;;;;24.27;15.23;;;4.50;97.30;;;;;;5867836;24;20562;-83
2023/01/08 11:56:39;;;;;;;27.23;16.83;;;4.50;96.80;;;;;;5867684;24;20690;-82
2023/01/08 12:47:46;;;;;;;26.80;15.80;;;4.10;97.40;;;;;;5918622;24;20203;-87
2023/01/08 13:13:07;;;;;;;28.73;17.60;;;4.00;98.50;;;;;;5784648;24;20535;-85
2023/01/08 13:37:50;;;;;;;33.20;19.67;;;4.00;99.90;;;;;;5666326;24;20255;-81
2023/01/08 14:08:51;;;;;;;32.37;19.53;;;3.70;99.90;;;;;;5812988;24;20250;-82
2023/01/08 14:43:48;;;;;;;33.97;18.67;;;3.50;99.90;;;;;;5681374;24;20231;-82
2023/01/08 16:25:16;;;;;;;37.17;21.23;;;3.40;99.90;;;;;;5812226;23;20839;-84
2023/01/08 16:45:51;;;;;;;32.27;20.63;;;3.40;99.90;;;;;;5724656;24;20202;-84
2023/01/08 17:16:20;;;;;;;38.77;20.57;;;3.50;99.90;;;;;;5858917;23;20206;-81
2023/01/08 18:06:31;;;;;;;39.23;22.43;;;3.50;99.90;;;;;;5802504;24;20228;-81
2023/01/08 18:36:58;;;;;;;40.80;22.60;;;3.50;99.90;;;;;;5794386;24;20480;-81
2023/01/08 18:52:55;;;;;;;41.27;23.60;;;3.50;99.90;;;;;;5759597;24;20208;-83
2023/01/08 19:17:53;;;;;;;40.60;22.63;;;3.50;99.90;;;;;;5734782;24;20267;-84
2023/01/08 19:47:56;;;;;;;43.13;25.67;;;3.60;99.90;;;;;;5998518;23;20667;-83
2023/01/08 20:08:53;;;;;;;44.37;24.83;;;3.70;99.90;;;;;;5950892;23;20205;-83
2023/01/08 20:44:26;;;;;;;47.33;26.93;;;3.80;99.90;;;;;;5866839;24;20305;-82
2023/01/08 21:14:51;;;;;;;50.57;28.53;;;3.80;99.90;;;;;;5891464;24;20204;-82
2023/01/08 21:49:39;;;;;;;51.13;30.13;;;3.90;99.90;;;;;;5848737;24;20512;-86
2023/01/08 22:15:37;;;;;;;51.80;28.37;;;3.90;99.90;;;;;;5845675;24;20268;-84
2023/01/08 22:50:33;;;;;;;46.80;28.70;;;3.80;99.90;;;;;;5735243;24;20372;-83
2023/01/08 23:16:23;;;;;;;57.67;29.57;;;4.00;99.90;;;;;;5813825;24;20199;-86
2023/01/08 23:41:41;;;;;;;54.73;29.83;;;4.00;99.90;;;;;;5859248;24;20330;-83
